createdAt,value
2019-01-18T00:18:03.638Z,10.23
2019-01-18T00:20:52.611Z,10.30
2019-01-18T00:23:41.534Z,8.70
2019-01-18T00:26:30.566Z,12.77
2019-01-18T00:29:19.489Z,17.97
2019-01-18T00:32:27.917Z,10.60
2019-01-18T00:35:16.946Z,12.53
2019-01-18T00:38:05.941Z,8.47
2019-01-18T00:40:35.671Z,12.50
2019-01-18T00:46:32.647Z,7.40
2019-01-18T00:49:21.602Z,16.00
2019-01-18T00:52:10.674Z,20.40
2019-01-18T00:54:53.013Z,11.10
2019-01-18T00:57:41.979Z,8.83
2019-01-18T01:04:02.623Z,11.40
2019-01-18T01:07:00.791Z,19.60
2019-01-18T01:24:28.458Z,14.63
2019-01-18T01:27:17.339Z,14.90
2019-01-18T01:30:26.909Z,14.33
2019-01-18T01:36:16.243Z,15.83
2019-01-18T01:39:24.536Z,11.50
2019-01-18T01:42:13.459Z,13.50
2019-01-18T01:45:02.459Z,14.00
2019-01-18T01:47:51.562Z,12.77
2019-01-18T01:50:40.530Z,10.63
2019-01-18T01:53:29.464Z,13.53
2019-01-18T01:56:11.768Z,12.37
2019-01-18T01:59:00.626Z,17.10
2019-01-18T02:02:08.983Z,26.17
2019-01-18T02:04:57.895Z,15.23
2019-01-18T02:08:06.170Z,11.57
2019-01-18T02:10:55.211Z,13.50
2019-01-18T02:13:45.747Z,8.80
2019-01-18T02:16:36.495Z,9.87
2019-01-18T02:19:25.418Z,10.77
2019-01-18T02:22:14.391Z,9.77
2019-01-18T02:25:03.583Z,8.90
2019-01-18T02:27:52.470Z,13.63
2019-01-18T02:30:41.508Z,6.67
2019-01-18T02:33:30.345Z,11.13
2019-01-18T02:36:19.366Z,11.87
2019-01-18T02:42:30.969Z,10.97
2019-01-18T02:45:39.235Z,10.53
2019-01-18T02:48:28.240Z,9.73
2019-01-18T02:53:58.363Z,10.20
2019-01-18T02:56:47.226Z,8.30
2019-01-18T02:59:55.565Z,8.30
2019-01-18T03:02:44.493Z,8.87
2019-01-18T03:56:00.591Z,6.95
2019-01-18T06:16:31.576Z,23.97
2019-01-18T06:19:20.462Z,20.30
2019-01-18T06:22:09.387Z,19.67
2019-01-18T06:24:58.344Z,17.53
2019-01-18T06:27:47.332Z,28.33
2019-01-18T06:31:01.563Z,24.53
2019-01-18T06:34:05.831Z,22.67
2019-01-18T06:36:54.741Z,19.43
2019-01-18T06:39:43.843Z,19.70
2019-01-18T06:42:26.825Z,24.32
2019-01-18T06:45:36.455Z,29.33
2019-01-18T06:51:54.336Z,24.10
2019-01-18T06:54:37.191Z,17.87
2019-01-18T06:57:26.196Z,27.63
2019-01-18T07:00:36.027Z,24.37
2019-01-18T07:03:25.108Z,21.23
2019-01-18T07:06:14.170Z,22.13
2019-01-18T07:12:32.139Z,25.57
2019-01-18T07:15:21.093Z,14.20
2019-01-18T07:18:10.122Z,22.03
2019-01-18T07:21:18.534Z,26.87
2019-01-18T07:24:07.383Z,21.37
2019-01-18T07:26:56.334Z,30.20
2019-01-18T07:30:24.092Z,25.07
2019-01-18T07:33:13.185Z,26.53
2019-01-18T07:36:02.131Z,24.37
2019-01-18T07:38:51.062Z,25.73
2019-01-18T07:41:39.992Z,29.80
2019-01-18T07:44:28.763Z,20.43
2019-01-18T07:47:17.647Z,23.43
2019-01-18T07:50:25.929Z,20.03
2019-01-18T07:53:16.341Z,24.50
2019-01-18T07:56:18.438Z,18.47
2019-01-18T07:59:07.346Z,24.17
2019-01-18T08:01:56.198Z,24.27
2019-01-18T08:04:44.826Z,25.03
2019-01-18T08:07:33.651Z,26.70
2019-01-18T08:10:23.337Z,29.10
2019-01-18T08:13:12.287Z,26.90
2019-01-18T08:16:01.307Z,22.67
2019-01-18T08:18:50.411Z,30.77
2019-01-18T08:21:39.337Z,33.73
2019-01-18T08:24:29.907Z,23.93
2019-01-18T08:27:18.752Z,28.83
2019-01-18T08:30:28.451Z,25.37
2019-01-18T08:33:17.383Z,25.90
2019-01-18T08:36:06.678Z,21.73
2019-01-18T08:38:57.219Z,29.37
2019-01-18T08:41:46.085Z,26.17
2019-01-18T08:44:35.100Z,28.83
2019-01-18T08:47:24.075Z,28.40
2019-01-18T08:50:33.663Z,30.97
2019-01-18T09:58:54.003Z,21.73
2019-01-18T10:13:07.615Z,13.13
2019-01-18T11:28:54.263Z,10.20
2019-01-18T11:31:44.800Z,9.50
2019-01-18T11:34:33.729Z,7.10
2019-01-18T11:37:22.808Z,9.53
2019-01-18T11:40:32.481Z,8.07
2019-01-18T11:43:21.371Z,11.30
2019-01-18T11:46:10.397Z,7.57
2019-01-18T11:48:59.383Z,6.60
2019-01-18T11:51:48.515Z,7.90
2019-01-18T11:54:37.420Z,10.60
2019-01-18T11:57:39.564Z,6.40
2019-01-18T12:00:29.037Z,7.30
2019-01-18T12:03:37.487Z,9.80
2019-01-18T12:06:26.458Z,9.50
2019-01-18T12:12:23.552Z,6.97
2019-01-18T12:15:12.836Z,19.63
2019-01-18T12:18:03.216Z,4.43
2019-01-18T12:21:11.783Z,8.07
2019-01-18T12:27:08.653Z,8.47
2019-01-18T12:30:37.695Z,8.87
2019-01-18T12:33:26.687Z,7.30
2019-01-18T12:36:15.811Z,7.37
2019-01-18T12:39:25.387Z,8.10
2019-01-18T12:42:07.504Z,5.53
2019-01-18T12:44:56.415Z,6.20
2019-01-18T12:48:05.610Z,4.27
2019-01-18T12:51:14.963Z,4.63
2019-01-18T12:54:23.264Z,5.00
2019-01-18T12:57:05.622Z,2.67
2019-01-18T12:59:54.751Z,7.57
2019-01-18T13:02:43.751Z,7.10
2019-01-18T13:05:52.081Z,4.53
2019-01-18T13:08:40.959Z,4.90
2019-01-18T13:11:29.824Z,4.10
2019-01-18T13:14:18.755Z,5.00
2019-01-18T13:17:27.037Z,5.40
2019-01-18T13:20:16.115Z,2.23
2019-01-18T13:23:07.173Z,6.30
2019-01-18T13:25:56.252Z,4.40
2019-01-18T13:28:45.279Z,8.07
2019-01-18T13:31:34.286Z,7.50
2019-01-18T13:34:23.228Z,3.97
2019-01-18T13:37:23.787Z,5.10
2019-01-18T13:40:07.883Z,4.23
2019-01-18T13:42:56.794Z,6.70
2019-01-18T13:46:05.243Z,7.57
2019-01-18T13:48:54.249Z,5.73
2019-01-18T13:51:46.214Z,11.60
2019-01-18T13:54:53.139Z,7.63
2019-01-18T13:57:42.125Z,5.30
2019-01-18T14:00:30.999Z,3.43
2019-01-18T14:03:19.910Z,8.37
2019-01-18T14:06:23.390Z,5.00
2019-01-18T14:09:18.923Z,5.37
2019-01-18T14:12:07.863Z,5.17
2019-01-18T14:18:20.628Z,6.30
2019-01-18T14:21:09.609Z,3.93
2019-01-18T14:24:17.923Z,9.53
2019-01-18T14:27:07.054Z,7.50
2019-01-18T14:30:36.149Z,6.17
2019-01-18T14:33:44.561Z,4.00
2019-01-18T14:36:52.933Z,5.50
